Shelby, Nebraska
Current Conditions -  °F | °C
As of 5:35 AM on Saturday 22 Nov 2014 (Local Time) from KOLU Reporting Station
Overcast Overcast  
Wind Chill: 28°   Ceiling: 200
Heat Index: 36°   Visibility: 1.5mi
Dew Point: 34°   Wind: 10mph
Humidity: 93%   Direction: 210°SSW
Pressure: 29.87"   Gusts: NA
Location:  41.19°N, 97.43°W
Report Text: KOLU 221135Z AUTO 21009KT 1 1/2SM OVC002 02/01 A2987 RMK AO1
Loading
Personal Weather Stations






























Interactive Weather Map New forecast layout! Learn more

10-Day Weather Forecast

Advertisements
Track Severe Weather on mobile